createdAt,value
2023-03-04T00:02:20.431Z,101719.22
2023-03-04T00:04:47.100Z,101723.13
2023-03-04T00:07:16.769Z,101719.78
2023-03-04T00:09:45.486Z,101715.63
2023-03-04T00:12:13.232Z,101716.47
2023-03-04T00:14:40.525Z,101717.56
2023-03-04T00:17:07.590Z,101714.25
2023-03-04T00:19:35.425Z,101715.38
2023-03-04T00:22:03.951Z,101719.78
2023-03-04T00:24:31.010Z,101710.94
2023-03-04T00:26:57.746Z,101713.44
2023-03-04T00:29:24.497Z,101710.13
2023-03-04T00:31:51.398Z,101709.84
2023-03-04T00:34:18.270Z,101705.97
2023-03-04T00:36:45.190Z,101716.19
2023-03-04T00:39:12.450Z,101699.34
2023-03-04T00:41:39.500Z,101715.66
2023-03-04T00:44:06.730Z,101705.97
2023-03-04T00:46:33.757Z,101705.97
2023-03-04T00:49:00.464Z,101710.66
2023-03-04T00:51:27.467Z,101704.31
2023-03-04T00:53:54.316Z,101700.44
2023-03-04T00:56:21.115Z,101696.00
2023-03-04T00:58:47.749Z,101696.00
2023-03-04T01:01:14.464Z,101708.19
2023-03-04T01:03:42.478Z,101710.13
2023-03-04T01:06:11.312Z,101713.69
2023-03-04T01:08:39.489Z,101710.66
2023-03-04T01:11:06.522Z,101709.81
2023-03-04T01:13:33.545Z,101702.63
2023-03-04T01:16:00.485Z,101710.38
2023-03-04T01:18:27.437Z,101696.03
2023-03-04T01:20:54.520Z,101703.75
2023-03-04T01:23:21.506Z,101702.34
2023-03-04T01:25:48.428Z,101695.19
2023-03-04T01:28:15.354Z,101700.41
2023-03-04T01:30:42.049Z,101689.09
2023-03-04T01:33:08.871Z,101693.25
2023-03-04T01:35:36.059Z,101692.69
2023-03-04T01:38:02.833Z,101689.94
2023-03-04T01:40:31.127Z,101679.44
2023-03-04T01:42:58.003Z,101675.03
2023-03-04T01:45:24.961Z,101684.94
2023-03-04T01:47:52.630Z,101676.97
2023-03-04T01:50:32.656Z,101673.66
2023-03-04T01:52:59.773Z,101672.53
2023-03-04T01:55:27.458Z,101658.44
2023-03-04T01:57:55.782Z,101665.63
2023-03-04T02:00:31.852Z,101664.78
2023-03-04T02:03:21.079Z,101658.44
2023-03-04T02:05:52.640Z,101657.63
2023-03-04T02:08:22.072Z,101650.16
2023-03-04T02:10:49.444Z,101649.63
2023-03-04T02:13:16.583Z,101655.69
2023-03-04T02:15:45.469Z,101646.03
2023-03-04T02:18:22.800Z,101649.06
2023-03-04T02:21:17.973Z,101641.03
2023-03-04T02:23:56.546Z,101630.84
2023-03-04T02:26:30.935Z,101625.31
2023-03-04T02:29:00.221Z,101627.53
2023-03-04T02:31:36.731Z,101632.22
2023-03-04T02:34:09.820Z,101631.38
2023-03-04T02:36:37.394Z,101625.88
2023-03-04T02:39:22.575Z,101629.19
2023-03-04T02:41:52.930Z,101623.66
2023-03-04T02:44:22.507Z,101626.41
2023-03-04T02:46:51.145Z,101620.59
2023-03-04T02:49:19.474Z,101613.72
2023-03-04T02:51:46.825Z,101618.13
2023-03-04T02:54:18.107Z,101619.22
2023-03-04T02:56:52.933Z,101619.81
2023-03-04T02:59:22.952Z,101614.28
2023-03-04T03:01:51.200Z,101618.13
2023-03-04T03:04:18.938Z,101618.69
2023-03-04T03:06:46.325Z,101623.09
2023-03-04T03:09:13.239Z,101615.38
2023-03-04T03:11:39.891Z,101614.53
2023-03-04T03:14:06.713Z,101612.31
2023-03-04T03:16:52.774Z,101598.25
2023-03-04T03:19:19.492Z,101602.66
2023-03-04T03:21:47.036Z,101597.69
2023-03-04T03:24:13.718Z,101597.69
2023-03-04T03:26:40.940Z,101593.56
2023-03-04T03:29:08.103Z,101596.03
2023-03-04T03:31:34.837Z,101598.25
2023-03-04T03:34:01.680Z,101601.56
2023-03-04T03:36:28.560Z,101583.91
2023-03-04T03:38:55.298Z,101592.72
2023-03-04T03:41:21.983Z,101591.06
2023-03-04T03:43:48.623Z,101594.09
2023-03-04T03:46:15.557Z,101591.59
2023-03-04T03:48:42.396Z,101594.38
2023-03-04T03:51:09.484Z,101588.59
2023-03-04T03:53:36.320Z,101586.09
2023-03-04T03:56:03.159Z,101592.72
2023-03-04T03:58:30.044Z,101591.91
2023-03-04T04:00:58.470Z,101599.63
2023-03-04T04:03:25.797Z,101595.47
2023-03-04T04:05:52.612Z,101595.19
2023-03-04T04:08:19.454Z,101598.78
2023-03-04T04:10:46.372Z,101595.19
2023-03-04T04:13:13.513Z,101595.47
2023-03-04T04:15:40.360Z,101594.91
2023-03-04T04:18:07.585Z,101588.31
2023-03-04T04:20:34.748Z,101589.38
2023-03-04T04:23:01.558Z,101589.38
2023-03-04T04:25:28.322Z,101591.59
2023-03-04T04:27:55.028Z,101583.88
2023-03-04T04:30:21.604Z,101580.56
2023-03-04T04:32:48.210Z,101584.97
2023-03-04T04:35:14.964Z,101589.13
2023-03-04T04:37:41.773Z,101587.47
2023-03-04T04:40:09.300Z,101588.00
2023-03-04T04:42:36.032Z,101584.69
2023-03-04T04:45:03.461Z,101586.34
2023-03-04T04:47:30.140Z,101586.34
2023-03-04T04:49:56.825Z,101587.16
2023-03-04T04:52:23.656Z,101596.28
2023-03-04T04:54:50.251Z,101595.44
2023-03-04T04:57:16.851Z,101596.53
2023-03-04T04:59:43.511Z,101596.53
2023-03-04T05:02:10.167Z,101604.25
2023-03-04T05:04:36.850Z,101602.88
2023-03-04T05:07:03.767Z,101602.63
2023-03-04T05:09:30.313Z,101605.09
2023-03-04T05:11:57.059Z,101599.03
2023-03-04T05:14:23.871Z,101602.34
2023-03-04T05:16:52.900Z,101600.97
2023-03-04T05:19:20.766Z,101613.38
2023-03-04T05:21:47.659Z,101607.00
2023-03-04T05:24:14.494Z,101615.00
2023-03-04T05:26:41.619Z,101608.94
2023-03-04T05:29:08.380Z,101605.34
2023-03-04T05:31:35.204Z,101613.38
2023-03-04T05:34:02.144Z,101604.50
2023-03-04T05:36:28.852Z,101607.56
2023-03-04T05:38:55.605Z,101603.72
2023-03-04T05:41:22.902Z,101602.03
2023-03-04T05:43:50.806Z,101602.03
2023-03-04T05:46:19.244Z,101600.38
2023-03-04T05:48:45.921Z,101611.41
2023-03-04T05:51:12.688Z,101602.59
2023-03-04T05:53:41.158Z,101608.09
2023-03-04T05:56:16.106Z,101611.94
2023-03-04T05:58:43.858Z,101610.03
2023-03-04T06:01:11.173Z,101606.97
2023-03-04T06:03:38.088Z,101611.94
2023-03-04T06:06:05.422Z,101605.34
2023-03-04T06:08:32.403Z,101610.84
2023-03-04T06:10:59.303Z,101609.72
2023-03-04T06:13:26.124Z,101609.19
2023-03-04T06:15:57.531Z,101619.97
2023-03-04T06:18:25.578Z,101620.25
2023-03-04T06:20:56.782Z,101624.63
2023-03-04T06:23:23.485Z,101621.34
2023-03-04T06:25:54.519Z,101634.53
2023-03-04T06:28:21.424Z,101621.88
2023-03-04T06:30:48.016Z,101624.88
2023-03-04T06:33:14.720Z,101619.91
2023-03-04T06:35:41.679Z,101625.41
2023-03-04T06:38:08.485Z,101627.38
2023-03-04T06:40:35.369Z,101625.97
2023-03-04T06:43:02.082Z,101632.06
2023-03-04T06:45:28.794Z,101633.16
2023-03-04T06:47:55.497Z,101630.66
2023-03-04T06:50:22.391Z,101637.81
2023-03-04T06:52:49.402Z,101639.75
2023-03-04T06:55:16.215Z,101645.53
2023-03-04T06:57:42.860Z,101646.06
2023-03-04T07:00:10.114Z,101649.94
2023-03-04T07:02:36.809Z,101647.75
2023-03-04T07:05:03.749Z,101642.78
2023-03-04T07:07:30.488Z,101652.69
2023-03-04T07:09:57.307Z,101645.25
2023-03-04T07:12:24.043Z,101656.56
2023-03-04T07:14:50.792Z,101655.44
2023-03-04T07:17:17.569Z,101661.50
2023-03-04T07:19:44.715Z,101657.63
2023-03-04T07:22:11.614Z,101666.19
2023-03-04T07:24:38.408Z,101660.94
2023-03-04T07:27:05.197Z,101658.19
2023-03-04T07:29:31.968Z,101660.94
2023-03-04T07:31:58.620Z,101673.03
2023-03-04T07:34:25.370Z,101664.78
2023-03-04T07:36:51.998Z,101668.38
2023-03-04T07:39:18.666Z,101665.91
2023-03-04T07:41:45.415Z,101669.75
2023-03-04T07:44:13.550Z,101669.75
2023-03-04T07:46:40.502Z,101671.06
2023-03-04T07:49:07.864Z,101671.91
2023-03-04T07:51:35.786Z,101681.25
2023-03-04T07:54:02.575Z,101679.63
2023-03-04T07:56:31.906Z,101674.66
2023-03-04T07:58:59.147Z,101681.25
2023-03-04T08:01:29.495Z,101675.75
2023-03-04T08:03:56.353Z,101672.44
2023-03-04T08:06:23.949Z,101680.44
2023-03-04T08:08:57.139Z,101686.47
2023-03-04T08:11:24.042Z,101686.47
2023-03-04T08:13:50.815Z,101685.09
2023-03-04T08:16:19.105Z,101687.84
2023-03-04T08:18:48.491Z,101687.03
2023-03-04T08:21:18.691Z,101694.19
2023-03-04T08:23:46.467Z,101692.81
2023-03-04T08:26:17.682Z,101696.38
2023-03-04T08:28:45.815Z,101693.88
2023-03-04T08:31:16.382Z,101691.72
2023-03-04T08:33:43.162Z,101702.75
2023-03-04T08:36:10.395Z,101692.25
2023-03-04T08:38:37.485Z,101699.41
2023-03-04T08:41:05.066Z,101705.75
2023-03-04T08:43:33.211Z,101704.34
2023-03-04T08:45:59.985Z,101708.78
2023-03-04T08:48:27.156Z,101718.13
2023-03-04T08:50:54.044Z,101718.97
2023-03-04T08:53:21.245Z,101719.22
2023-03-04T08:55:48.695Z,101712.06
2023-03-04T08:58:15.632Z,101721.16
2023-03-04T09:00:48.437Z,101704.63
2023-03-04T09:03:16.847Z,101718.66
2023-03-04T09:05:45.128Z,101713.16
2023-03-04T09:08:11.903Z,101713.16
2023-03-04T09:10:38.712Z,101717.81
2023-03-04T09:13:06.392Z,101706.56
2023-03-04T09:15:36.641Z,101714.81
2023-03-04T09:18:05.176Z,101709.88
2023-03-04T09:20:32.710Z,101705.50
2023-03-04T09:22:59.628Z,101712.19
2023-03-04T09:25:26.467Z,101705.59
2023-03-04T09:27:53.748Z,101710.63
2023-03-04T09:30:20.710Z,101703.00
2023-03-04T09:32:48.030Z,101699.72
2023-03-04T09:35:14.855Z,101701.94
2023-03-04T09:37:41.944Z,101698.41
2023-03-04T09:40:16.219Z,101703.69
2023-03-04T09:42:47.831Z,101702.59
2023-03-04T09:45:20.177Z,101709.25
2023-03-04T09:47:50.854Z,101701.00
2023-03-04T09:50:20.168Z,101694.34
2023-03-04T09:53:29.012Z,101701.53
2023-03-04T09:55:56.163Z,101695.50
2023-03-04T09:58:44.752Z,101699.34
2023-03-04T10:01:29.176Z,101696.03
2023-03-04T10:04:02.978Z,101694.66
2023-03-04T10:06:31.800Z,101697.13
2023-03-04T10:09:04.428Z,101690.53
2023-03-04T10:11:45.332Z,101686.38
2023-03-04T10:14:21.125Z,101687.19
2023-03-04T10:17:08.834Z,101682.78
2023-03-04T10:20:09.929Z,101687.19
2023-03-04T10:22:41.138Z,101678.88
2023-03-04T10:25:27.720Z,101679.97
2023-03-04T10:27:58.225Z,101674.44
2023-03-04T10:30:42.866Z,101669.75
2023-03-04T10:33:18.822Z,101670.00
2023-03-04T10:35:51.099Z,101667.81
2023-03-04T10:38:20.538Z,101661.16
2023-03-04T10:40:47.526Z,101668.31
2023-03-04T10:43:19.422Z,101668.88
2023-03-04T10:45:47.229Z,101667.22
2023-03-04T10:48:22.986Z,101670.25
2023-03-04T10:50:50.080Z,101673.56
2023-03-04T10:53:40.738Z,101671.06
2023-03-04T10:56:39.953Z,101667.47
2023-03-04T10:59:25.586Z,101661.38
2023-03-04T11:01:54.613Z,101660.81
2023-03-04T11:04:25.606Z,101662.75
2023-03-04T11:06:53.047Z,101654.44
2023-03-04T11:09:25.529Z,101656.69
2023-03-04T11:11:55.500Z,101655.25
2023-03-04T11:14:22.077Z,101648.84
2023-03-04T11:16:54.802Z,101650.53
2023-03-04T11:19:25.415Z,101657.97
2023-03-04T11:21:53.205Z,101652.72
2023-03-04T11:24:29.239Z,101657.69
2023-03-04T11:27:06.583Z,101656.56
2023-03-04T11:29:42.272Z,101651.84
2023-03-04T11:32:20.711Z,101641.06
2023-03-04T11:34:50.306Z,101644.41
2023-03-04T11:37:23.425Z,101636.09
2023-03-04T11:40:32.069Z,101639.94
2023-03-04T11:43:04.779Z,101642.69
2023-03-04T11:45:59.489Z,101632.16
2023-03-04T11:48:54.146Z,101629.66
2023-03-04T11:51:35.970Z,101631.84
2023-03-04T11:54:10.525Z,101629.34
2023-03-04T11:56:43.630Z,101628.25
2023-03-04T11:59:28.419Z,101622.66
2023-03-04T12:02:41.335Z,101613.84
2023-03-04T12:05:46.990Z,101614.94
2023-03-04T12:08:22.636Z,101606.91
2023-03-04T12:11:19.651Z,101603.56
2023-03-04T12:13:51.508Z,101599.38
2023-03-04T12:16:24.441Z,101597.19
2023-03-04T12:19:06.154Z,101587.16
2023-03-04T12:22:03.956Z,101591.66
2023-03-04T12:25:02.062Z,101583.88
2023-03-04T12:27:39.907Z,101576.09
2023-03-04T12:30:35.765Z,101574.94
2023-03-04T12:33:31.874Z,101574.69
2023-03-04T12:36:26.461Z,101565.53
2023-03-04T12:38:59.048Z,101570.56
2023-03-04T12:41:57.717Z,101564.44
2023-03-04T12:44:24.638Z,101563.31
2023-03-04T12:47:11.966Z,101554.38
2023-03-04T12:49:54.449Z,101557.94
2023-03-04T12:52:36.207Z,101559.75
2023-03-04T12:55:08.899Z,101557.25
2023-03-04T12:57:36.507Z,101551.38
2023-03-04T13:00:19.836Z,101544.84
2023-03-04T13:02:58.523Z,101548.91
2023-03-04T13:05:50.595Z,101535.31
2023-03-04T13:08:46.918Z,101540.34
2023-03-04T13:11:25.996Z,101536.81
2023-03-04T13:14:01.484Z,101537.13
2023-03-04T13:16:33.328Z,101535.13
2023-03-04T13:19:00.273Z,101537.06
2023-03-04T13:21:31.686Z,101532.88
2023-03-04T13:24:02.395Z,101526.81
2023-03-04T13:26:33.580Z,101529.00
2023-03-04T13:29:29.736Z,101522.69
2023-03-04T13:32:02.818Z,101526.81
2023-03-04T13:34:51.962Z,101520.13
2023-03-04T13:37:35.317Z,101515.72
2023-03-04T13:40:27.330Z,101515.16
2023-03-04T13:42:54.074Z,101511.81
2023-03-04T13:45:40.186Z,101514.06
2023-03-04T13:48:30.308Z,101515.41
2023-03-04T13:50:57.801Z,101505.16
2023-03-04T13:53:40.476Z,101506.91
2023-03-04T13:56:13.825Z,101507.66
2023-03-04T13:58:41.710Z,101514.06
2023-03-04T14:01:28.647Z,101499.88
2023-03-04T14:03:55.747Z,101498.97
2023-03-04T14:06:31.012Z,101501.56
2023-03-04T14:08:58.350Z,101494.00
2023-03-04T14:11:34.914Z,101491.25
2023-03-04T14:14:06.426Z,101480.22
2023-03-04T14:16:45.155Z,101481.88
2023-03-04T14:19:33.426Z,101474.34
2023-03-04T14:22:01.149Z,101478.47
2023-03-04T14:24:30.768Z,101477.97
2023-03-04T14:27:11.527Z,101484.06
2023-03-04T14:29:38.401Z,101477.94
2023-03-04T14:32:07.004Z,101472.69
2023-03-04T14:34:37.721Z,101465.72
2023-03-04T14:37:25.984Z,101466.78
2023-03-04T14:39:57.530Z,101468.44
2023-03-04T14:42:31.721Z,101458.22
2023-03-04T14:45:01.005Z,101459.91
2023-03-04T14:47:40.783Z,101461.16
2023-03-04T14:50:13.832Z,101452.84
2023-03-04T14:52:43.462Z,101452.25
2023-03-04T14:55:28.254Z,101447.84
2023-03-04T14:58:27.143Z,101446.72
2023-03-04T15:01:17.039Z,101444.47
2023-03-04T15:03:56.762Z,101444.69
2023-03-04T15:06:26.900Z,101441.06
2023-03-04T15:09:21.165Z,101430.56
2023-03-04T15:11:51.128Z,101430.41
2023-03-04T15:14:42.841Z,101435.72
2023-03-04T15:17:21.453Z,101431.84
2023-03-04T15:20:09.525Z,101432.06
2023-03-04T15:23:00.163Z,101429.28
2023-03-04T15:25:27.833Z,101422.00
2023-03-04T15:27:55.029Z,101424.56
2023-03-04T15:30:33.572Z,101425.94
2023-03-04T15:33:01.192Z,101416.19
2023-03-04T15:35:30.985Z,101421.41
2023-03-04T15:37:58.593Z,101412.56
2023-03-04T15:40:32.693Z,101413.63
2023-03-04T15:43:02.256Z,101416.94
2023-03-04T15:45:39.182Z,101412.41
2023-03-04T15:48:08.203Z,101409.13
2023-03-04T15:50:42.122Z,101407.94
2023-03-04T15:53:15.118Z,101406.88
2023-03-04T15:55:45.190Z,101412.41
2023-03-04T15:58:12.632Z,101413.78
2023-03-04T16:00:39.249Z,101406.34
2023-03-04T16:03:05.886Z,101414.06
2023-03-04T16:05:38.116Z,101400.72
2023-03-04T16:08:05.196Z,101408.16
2023-03-04T16:10:32.697Z,101401.63
2023-03-04T16:12:59.711Z,101405.16
2023-03-04T16:15:29.372Z,101405.59
2023-03-04T16:17:57.576Z,101407.78
2023-03-04T16:20:28.922Z,101398.84
2023-03-04T16:22:59.663Z,101396.81
2023-03-04T16:25:27.187Z,101396.22
2023-03-04T16:27:56.643Z,101404.44
2023-03-04T16:30:25.198Z,101397.25
2023-03-04T16:32:52.238Z,101396.22
2023-03-04T16:35:20.766Z,101401.44
2023-03-04T16:37:47.531Z,101395.16
2023-03-04T16:40:16.903Z,101395.25
2023-03-04T16:42:51.219Z,101394.13
2023-03-04T16:45:26.257Z,101394.13
2023-03-04T16:47:53.605Z,101385.81
2023-03-04T16:50:27.042Z,101386.84
2023-03-04T16:52:55.311Z,101383.63
2023-03-04T16:55:25.469Z,101385.56
2023-03-04T16:57:53.162Z,101384.75
2023-03-04T17:00:22.536Z,101386.00
2023-03-04T17:02:59.805Z,101386.81
2023-03-04T17:05:31.569Z,101385.19
2023-03-04T17:07:58.656Z,101389.50
2023-03-04T17:10:26.030Z,101386.22
2023-03-04T17:12:52.933Z,101384.16
2023-03-04T17:15:19.792Z,101385.00
2023-03-04T17:17:46.692Z,101385.72
2023-03-04T17:20:16.654Z,101385.44
2023-03-04T17:22:44.244Z,101395.88
2023-03-04T17:25:11.729Z,101382.66
2023-03-04T17:27:38.729Z,101394.88
2023-03-04T17:30:08.919Z,101398.53
2023-03-04T17:32:36.617Z,101394.03
2023-03-04T17:35:05.583Z,101385.69
2023-03-04T17:37:32.285Z,101379.81
2023-03-04T17:39:58.935Z,101385.47
2023-03-04T17:42:44.235Z,101385.59
2023-03-04T17:45:11.429Z,101387.44
2023-03-04T17:47:38.210Z,101388.56
2023-03-04T17:50:06.929Z,101395.25
2023-03-04T17:52:34.355Z,101393.31
2023-03-04T17:55:01.126Z,101400.91
2023-03-04T17:57:27.856Z,101404.28
2023-03-04T17:59:56.123Z,101400.28
2023-03-04T18:02:23.238Z,101399.75
2023-03-04T18:04:50.808Z,101398.03
2023-03-04T18:07:17.673Z,101410.84
2023-03-04T18:09:44.525Z,101405.91
2023-03-04T18:12:11.433Z,101409.22
2023-03-04T18:14:38.220Z,101412.06
2023-03-04T18:17:23.600Z,101407.94
2023-03-04T18:19:50.244Z,101405.91
2023-03-04T18:22:17.316Z,101403.22
2023-03-04T18:24:44.083Z,101399.94
2023-03-04T18:27:10.890Z,101401.19
2023-03-04T18:29:37.598Z,101389.44
2023-03-04T18:32:04.591Z,101396.66
2023-03-04T18:34:31.417Z,101398.78
2023-03-04T18:36:58.151Z,101395.00
2023-03-04T18:39:24.966Z,101389.44
2023-03-04T18:41:51.819Z,101389.44
2023-03-04T18:44:18.792Z,101391.09
2023-03-04T18:46:48.518Z,101389.25
2023-03-04T18:49:15.495Z,101393.78
2023-03-04T18:51:42.293Z,101393.78
2023-03-04T18:54:09.054Z,101389.97
2023-03-04T18:56:40.502Z,101389.97
2023-03-04T18:59:21.601Z,101400.31
2023-03-04T19:01:50.396Z,101386.16
2023-03-04T19:04:20.251Z,101394.50
2023-03-04T19:06:47.088Z,101386.16
2023-03-04T19:09:13.980Z,101387.78
2023-03-04T19:11:40.709Z,101396.66
2023-03-04T19:14:07.488Z,101396.22
2023-03-04T19:16:34.187Z,101398.28
2023-03-04T19:19:00.932Z,101400.56
2023-03-04T19:21:27.566Z,101401.44
2023-03-04T19:23:54.251Z,101397.25
2023-03-04T19:26:21.087Z,101402.41
2023-03-04T19:28:47.754Z,101401.38
2023-03-04T19:31:14.486Z,101400.56
2023-03-04T19:33:41.585Z,101410.00
2023-03-04T19:36:09.469Z,101409.16
2023-03-04T19:38:36.700Z,101414.44
2023-03-04T19:41:15.510Z,101406.94
2023-03-04T19:43:42.911Z,101403.84
2023-03-04T19:46:10.608Z,101405.59
2023-03-04T19:48:38.780Z,101402.13
2023-03-04T19:51:14.685Z,101403.94
2023-03-04T19:53:41.776Z,101402.22
2023-03-04T19:56:08.556Z,101398.88
2023-03-04T19:58:35.302Z,101405.41
2023-03-04T20:01:02.024Z,101405.13
2023-03-04T20:03:28.747Z,101401.56
2023-03-04T20:06:05.960Z,101405.50
2023-03-04T20:08:32.760Z,101407.13
2023-03-04T20:10:59.547Z,101403.84
2023-03-04T20:13:26.406Z,101404.28
2023-03-04T20:15:53.149Z,101399.13
2023-03-04T20:18:19.791Z,101397.91
2023-03-04T20:20:48.814Z,101402.13
2023-03-04T20:23:20.193Z,101394.91
2023-03-04T20:25:47.408Z,101402.03
2023-03-04T20:28:14.184Z,101398.72
2023-03-04T20:30:41.104Z,101402.63
2023-03-04T20:33:07.883Z,101399.25
2023-03-04T20:35:34.737Z,101390.81
2023-03-04T20:38:02.301Z,101403.69
2023-03-04T20:40:29.231Z,101391.34
2023-03-04T20:42:56.026Z,101398.13
2023-03-04T20:45:24.737Z,101391.31
2023-03-04T20:47:51.498Z,101388.47
2023-03-04T20:50:18.819Z,101385.69
2023-03-04T20:52:46.152Z,101387.03
2023-03-04T20:55:12.877Z,101388.66
2023-03-04T20:57:39.793Z,101386.78
2023-03-04T21:00:08.482Z,101385.81
2023-03-04T21:02:35.368Z,101390.31
2023-03-04T21:05:02.347Z,101391.97
2023-03-04T21:07:29.199Z,101389.19
2023-03-04T21:09:55.997Z,101394.75
2023-03-04T21:12:22.698Z,101399.75
2023-03-04T21:14:49.496Z,101393.91
2023-03-04T21:17:16.198Z,101403.06
2023-03-04T21:19:45.641Z,101401.31
2023-03-04T21:22:17.477Z,101405.84
2023-03-04T21:24:45.740Z,101395.75
2023-03-04T21:27:13.586Z,101400.19
2023-03-04T21:29:40.306Z,101397.31
2023-03-04T21:32:23.667Z,101396.09
2023-03-04T21:34:52.799Z,101393.59
2023-03-04T21:37:21.417Z,101388.28
2023-03-04T21:39:48.558Z,101393.03
2023-03-04T21:42:15.318Z,101380.28
2023-03-04T21:44:50.927Z,101379.97
2023-03-04T21:47:20.010Z,101386.03
2023-03-04T21:49:47.176Z,101385.22
2023-03-04T21:52:14.086Z,101378.03
2023-03-04T21:54:40.840Z,101383.34
2023-03-04T21:57:07.638Z,101384.97
2023-03-04T21:59:34.352Z,101384.91
2023-03-04T22:02:02.194Z,101385.09
2023-03-04T22:04:28.995Z,101378.09
2023-03-04T22:06:55.715Z,101372.06
2023-03-04T22:09:22.356Z,101373.91
2023-03-04T22:11:49.111Z,101369.56
2023-03-04T22:14:15.869Z,101368.81
2023-03-04T22:16:59.017Z,101373.59
2023-03-04T22:19:30.243Z,101363.13
2023-03-04T22:21:57.420Z,101368.44
2023-03-04T22:24:24.303Z,101371.31
2023-03-04T22:26:51.125Z,101367.16
2023-03-04T22:29:18.312Z,101366.13
2023-03-04T22:31:45.987Z,101365.06
2023-03-04T22:34:14.925Z,101359.59
2023-03-04T22:36:44.458Z,101355.75
2023-03-04T22:39:12.538Z,101358.03
2023-03-04T22:41:39.639Z,101354.72
2023-03-04T22:44:07.582Z,101357.59
2023-03-04T22:46:38.154Z,101355.41
2023-03-04T22:49:10.307Z,101353.81
2023-03-04T22:51:38.272Z,101354.94
2023-03-04T22:54:05.227Z,101351.66
2023-03-04T22:56:33.148Z,101353.34
2023-03-04T22:58:59.935Z,101352.31
2023-03-04T23:01:26.553Z,101343.47
2023-03-04T23:03:53.340Z,101347.97
2023-03-04T23:06:25.193Z,101347.97
2023-03-04T23:08:52.650Z,101349.16
2023-03-04T23:11:26.537Z,101335.88
2023-03-04T23:13:54.698Z,101344.78
2023-03-04T23:16:23.041Z,101332.38
2023-03-04T23:18:49.862Z,101332.63
2023-03-04T23:21:20.217Z,101332.44
2023-03-04T23:23:48.118Z,101335.47
2023-03-04T23:26:24.120Z,101330.53
2023-03-04T23:28:51.360Z,101325.31
2023-03-04T23:31:18.933Z,101327.84
2023-03-04T23:33:47.901Z,101326.16
2023-03-04T23:36:18.383Z,101328.41
2023-03-04T23:38:47.843Z,101330.66
2023-03-04T23:41:15.475Z,101327.91
2023-03-04T23:43:42.106Z,101328.75
2023-03-04T23:46:11.976Z,101328.50
2023-03-04T23:48:40.065Z,101330.75
2023-03-04T23:51:07.138Z,101321.91
2023-03-04T23:53:34.574Z,101322.25
2023-03-04T23:56:01.450Z,101323.09
2023-03-04T23:58:28.267Z,101323.69
